createdAt,value
2023-02-27T00:00:00.038Z,1009.1
2023-02-27T00:01:16.330Z,1009.1
2023-02-27T00:02:32.618Z,1009
2023-02-27T00:03:47.950Z,1009
2023-02-27T00:05:04.228Z,1009
2023-02-27T00:06:20.528Z,1009
2023-02-27T00:07:36.838Z,1009
2023-02-27T00:08:53.117Z,1009
2023-02-27T00:10:09.424Z,1009
2023-02-27T00:11:25.717Z,1008.9
2023-02-27T00:12:42.009Z,1008.9
2023-02-27T00:13:58.316Z,1008.9
2023-02-27T00:15:14.614Z,1008.9
2023-02-27T00:16:30.907Z,1008.9
2023-02-27T00:17:47.191Z,1009
2023-02-27T00:19:03.499Z,1008.9
2023-02-27T00:20:18.798Z,1009
2023-02-27T00:22:51.383Z,1009
2023-02-27T00:24:07.684Z,1009
2023-02-27T00:25:23.991Z,1008.9
2023-02-27T00:26:40.269Z,1008.9
2023-02-27T00:27:56.582Z,1008.9
2023-02-27T00:29:12.878Z,1009
2023-02-27T00:30:29.169Z,1009
2023-02-27T00:31:45.469Z,1008.9
2023-02-27T00:33:01.756Z,1008.9
2023-02-27T00:34:18.041Z,1009
2023-02-27T00:36:50.638Z,1009
2023-02-27T00:38:05.962Z,1009
2023-02-27T00:39:22.246Z,1009.1
2023-02-27T00:40:38.550Z,1009.1
2023-02-27T00:41:54.831Z,1009.1
2023-02-27T00:43:11.128Z,1009.1
2023-02-27T00:44:27.436Z,1009.1
2023-02-27T00:45:43.738Z,1009.1
2023-02-27T00:47:00.015Z,1009.1
2023-02-27T00:48:16.308Z,1009.1
2023-02-27T00:49:32.606Z,1009.1
2023-02-27T00:50:48.913Z,1009.1
2023-02-27T00:52:05.199Z,1009
2023-02-27T00:53:21.489Z,1009.1
2023-02-27T00:54:36.812Z,1009
2023-02-27T00:55:53.096Z,1009
2023-02-27T00:57:09.410Z,1009
2023-02-27T00:58:25.697Z,1009
2023-02-27T00:59:41.986Z,1009
2023-02-27T01:00:58.290Z,1009
2023-02-27T01:02:14.586Z,1008.9
2023-02-27T01:03:30.887Z,1008.9
2023-02-27T01:04:47.180Z,1008.9
2023-02-27T01:07:19.762Z,1008.9
2023-02-27T01:08:36.065Z,1008.9
2023-02-27T01:09:52.363Z,1008.9
2023-02-27T01:11:07.676Z,1008.9
2023-02-27T01:12:23.960Z,1008.9
2023-02-27T01:13:40.249Z,1008.9
2023-02-27T01:14:56.542Z,1008.9
2023-02-27T01:16:12.842Z,1009
2023-02-27T01:17:29.142Z,1009
2023-02-27T01:18:45.435Z,1008.9
2023-02-27T01:20:01.728Z,1009
2023-02-27T01:21:18.035Z,1009
2023-02-27T01:22:34.335Z,1008.9
2023-02-27T01:25:06.918Z,1009
2023-02-27T01:26:23.211Z,1008.9
2023-02-27T01:27:38.525Z,1008.9
2023-02-27T01:28:54.816Z,1008.9
2023-02-27T01:30:11.115Z,1008.9
2023-02-27T01:31:27.411Z,1008.9
2023-02-27T01:32:43.693Z,1008.9
2023-02-27T01:33:59.990Z,1009
2023-02-27T01:35:16.298Z,1008.9
2023-02-27T01:36:32.593Z,1009
2023-02-27T01:37:48.893Z,1009
2023-02-27T01:39:05.174Z,1009
2023-02-27T01:40:21.466Z,1009
2023-02-27T01:41:37.767Z,1009.1
2023-02-27T01:42:54.056Z,1009
2023-02-27T01:45:25.682Z,1009
2023-02-27T01:46:41.974Z,1009
2023-02-27T01:47:58.255Z,1009
2023-02-27T01:49:14.548Z,1009
2023-02-27T01:50:30.856Z,1009
2023-02-27T01:53:03.434Z,1009
2023-02-27T01:54:19.746Z,1009
2023-02-27T01:55:36.034Z,1009
2023-02-27T01:56:52.320Z,1009
2023-02-27T01:58:08.633Z,1009
2023-02-27T01:59:24.928Z,1009
2023-02-27T02:00:40.232Z,1009
2023-02-27T02:01:56.522Z,1009
2023-02-27T02:04:29.110Z,1009.1
2023-02-27T02:05:44.441Z,1009.1
2023-02-27T02:08:16.051Z,1009.1
2023-02-27T02:09:32.340Z,1009
2023-02-27T02:10:48.634Z,1009
2023-02-27T02:12:04.927Z,1009.1
2023-02-27T02:13:21.225Z,1009.1
2023-02-27T02:14:37.510Z,1009.1
2023-02-27T02:15:53.805Z,1009.1
2023-02-27T02:17:10.106Z,1009.1
2023-02-27T02:18:26.404Z,1009.1
2023-02-27T02:19:42.691Z,1009.1
2023-02-27T02:20:58.015Z,1009.1
2023-02-27T02:22:13.332Z,1009
2023-02-27T02:23:29.613Z,1009.1
2023-02-27T02:24:45.911Z,1009
2023-02-27T02:26:02.216Z,1009.1
2023-02-27T02:27:18.498Z,1009
2023-02-27T02:28:34.798Z,1009.1
2023-02-27T02:29:51.106Z,1009.1
2023-02-27T02:31:07.384Z,1009.1
2023-02-27T02:32:23.681Z,1009
2023-02-27T02:33:39.979Z,1009.1
2023-02-27T02:34:56.273Z,1009
2023-02-27T02:36:12.580Z,1009
2023-02-27T02:37:28.863Z,1009
2023-02-27T02:38:44.182Z,1009.1
2023-02-27T02:40:00.484Z,1009
2023-02-27T02:41:16.778Z,1009
2023-02-27T02:43:49.361Z,1009
2023-02-27T02:45:05.662Z,1009.1
2023-02-27T02:46:21.947Z,1009.1
2023-02-27T02:47:38.256Z,1009
2023-02-27T02:48:54.539Z,1009
2023-02-27T02:50:10.840Z,1009
2023-02-27T02:51:27.144Z,1009
2023-02-27T02:52:43.441Z,1009
2023-02-27T02:53:59.718Z,1009
2023-02-27T02:55:15.035Z,1009
2023-02-27T02:56:31.340Z,1009
2023-02-27T02:57:47.623Z,1009.1
2023-02-27T02:59:03.932Z,1009
2023-02-27T03:01:36.522Z,1009.1
2023-02-27T03:02:52.807Z,1009.1
2023-02-27T03:04:09.101Z,1009.1
2023-02-27T03:05:25.405Z,1009.1
2023-02-27T03:06:41.698Z,1009
2023-02-27T03:07:57.993Z,1009.1
2023-02-27T03:09:14.289Z,1009.1
2023-02-27T03:10:30.585Z,1009.1
2023-02-27T03:11:45.886Z,1009.1
2023-02-27T03:13:02.190Z,1009.1
2023-02-27T03:14:18.472Z,1009.1
2023-02-27T03:15:34.778Z,1009.1
2023-02-27T03:16:51.082Z,1009.1
2023-02-27T03:18:07.359Z,1009.1
2023-02-27T03:19:23.663Z,1009.1
2023-02-27T03:20:39.963Z,1009.1
2023-02-27T03:21:56.243Z,1009.2
2023-02-27T03:24:28.840Z,1009.1
2023-02-27T03:25:45.139Z,1009.2
2023-02-27T03:27:01.435Z,1009.1
2023-02-27T03:28:16.752Z,1009.2
2023-02-27T03:29:33.031Z,1009.2
2023-02-27T03:30:49.343Z,1009.1
2023-02-27T03:32:05.630Z,1009.1
2023-02-27T03:33:21.926Z,1009.1
2023-02-27T03:34:38.223Z,1009.1
2023-02-27T03:37:10.813Z,1009.2
2023-02-27T03:38:27.100Z,1009.2
2023-02-27T03:39:43.402Z,1009.2
2023-02-27T03:40:59.703Z,1009.2
2023-02-27T03:42:15.985Z,1009.3
2023-02-27T03:43:32.286Z,1009.3
2023-02-27T03:44:47.589Z,1009.3
2023-02-27T03:47:20.182Z,1009.3
2023-02-27T03:48:35.505Z,1009.3
2023-02-27T03:49:50.818Z,1009.3
2023-02-27T03:51:07.117Z,1009.3
2023-02-27T03:52:23.412Z,1009.3
2023-02-27T03:53:39.704Z,1009.3
2023-02-27T03:54:55.989Z,1009.4
2023-02-27T03:56:12.303Z,1009.4
2023-02-27T03:57:28.591Z,1009.3
2023-02-27T03:58:44.874Z,1009.4
2023-02-27T04:00:01.181Z,1009.4
2023-02-27T04:01:17.471Z,1009.4
2023-02-27T04:02:32.789Z,1009.4
2023-02-27T04:03:48.104Z,1009.5
2023-02-27T04:05:04.406Z,1009.5
2023-02-27T04:06:20.697Z,1009.5
2023-02-27T04:07:36.979Z,1009.5
2023-02-27T04:08:53.286Z,1009.6
2023-02-27T04:10:09.585Z,1009.5
2023-02-27T04:11:25.880Z,1009.6
2023-02-27T04:12:42.165Z,1009.6
2023-02-27T04:13:58.454Z,1009.6
2023-02-27T04:15:14.765Z,1009.6
2023-02-27T04:16:31.058Z,1009.6
2023-02-27T04:17:47.352Z,1009.6
2023-02-27T04:19:02.657Z,1009.7
2023-02-27T04:20:18.970Z,1009.7
2023-02-27T04:21:35.253Z,1009.7
2023-02-27T04:22:51.548Z,1009.7
2023-02-27T04:24:07.851Z,1009.7
2023-02-27T04:25:24.135Z,1009.7
2023-02-27T04:26:40.446Z,1009.8
2023-02-27T04:27:56.731Z,1009.8
2023-02-27T04:29:13.020Z,1009.8
2023-02-27T04:30:29.325Z,1009.8
2023-02-27T04:31:45.619Z,1009.8
2023-02-27T04:33:01.912Z,1009.8
2023-02-27T04:34:18.200Z,1009.8
2023-02-27T04:35:33.507Z,1009.8
2023-02-27T04:36:49.809Z,1009.8
2023-02-27T04:38:06.113Z,1009.9
2023-02-27T04:40:38.698Z,1009.9
2023-02-27T04:41:54.993Z,1009.8
2023-02-27T04:43:11.285Z,1009.9
2023-02-27T04:44:27.587Z,1009.8
2023-02-27T04:45:43.877Z,1009.9
2023-02-27T04:47:00.182Z,1009.9
2023-02-27T04:49:32.774Z,1009.8
2023-02-27T04:50:49.066Z,1009.9
2023-02-27T04:52:04.366Z,1009.9
2023-02-27T04:53:20.677Z,1009.8
2023-02-27T04:54:36.956Z,1009.9
2023-02-27T04:55:53.262Z,1009.9
2023-02-27T04:57:09.550Z,1009.9
2023-02-27T04:58:25.845Z,1009.9
2023-02-27T04:59:42.139Z,1009.9
2023-02-27T05:00:58.439Z,1009.9
2023-02-27T05:02:14.735Z,1009.9
2023-02-27T05:03:31.032Z,1009.9
2023-02-27T05:04:47.316Z,1009.9
2023-02-27T05:06:03.613Z,1009.9
2023-02-27T05:07:19.917Z,1009.8
2023-02-27T05:08:35.218Z,1009.8
2023-02-27T05:09:51.522Z,1009.8
2023-02-27T05:11:07.807Z,1009.8
2023-02-27T05:12:24.101Z,1009.9
2023-02-27T05:13:40.415Z,1009.8
2023-02-27T05:14:56.707Z,1009.8
2023-02-27T05:16:13.000Z,1009.8
2023-02-27T05:17:29.293Z,1009.8
2023-02-27T05:18:45.597Z,1009.9
2023-02-27T05:20:01.890Z,1009.9
2023-02-27T05:21:18.138Z,1009.9
2023-02-27T05:22:34.440Z,1009.9
2023-02-27T05:23:50.726Z,1010
2023-02-27T05:25:06.029Z,1010
2023-02-27T05:26:22.335Z,1010
2023-02-27T05:27:38.621Z,1010
2023-02-27T05:28:54.860Z,1010
2023-02-27T05:30:11.168Z,1010.1
2023-02-27T05:31:27.451Z,1010.1
2023-02-27T05:32:43.697Z,1010.1
2023-02-27T05:33:59.952Z,1010.1
2023-02-27T05:35:16.180Z,1010.1
2023-02-27T05:36:32.443Z,1010.1
2023-02-27T05:37:48.677Z,1010.1
2023-02-27T05:39:04.916Z,1010.1
2023-02-27T05:41:37.409Z,1010.1
2023-02-27T05:42:52.666Z,1010.1
2023-02-27T05:44:08.901Z,1010.1
2023-02-27T05:45:25.132Z,1010.1
2023-02-27T05:46:41.388Z,1010.1
2023-02-27T05:47:57.623Z,1010.1
2023-02-27T05:49:13.875Z,1010.1
2023-02-27T05:50:30.115Z,1010.1
2023-02-27T05:51:46.341Z,1010.1
2023-02-27T05:53:02.588Z,1010.1
2023-02-27T05:54:18.834Z,1010.1
2023-02-27T05:55:35.068Z,1010.1
2023-02-27T05:56:51.321Z,1010.1
2023-02-27T05:58:07.555Z,1010.1
2023-02-27T05:59:22.803Z,1010.1
2023-02-27T06:00:39.050Z,1010.1
2023-02-27T06:01:55.293Z,1010.1
2023-02-27T06:03:11.546Z,1010.1
2023-02-27T06:04:27.778Z,1010.1
2023-02-27T06:05:44.016Z,1010.2
2023-02-27T06:07:00.270Z,1010.2
2023-02-27T06:08:16.506Z,1010.1
2023-02-27T06:09:32.737Z,1010.1
2023-02-27T06:10:48.994Z,1010.2
2023-02-27T06:12:05.219Z,1010.2
2023-02-27T06:13:21.470Z,1010.2
2023-02-27T06:14:37.713Z,1010.2
2023-02-27T06:15:52.975Z,1010.3
2023-02-27T06:17:09.212Z,1010.3
2023-02-27T06:18:25.443Z,1010.3
2023-02-27T06:19:41.679Z,1010.3
2023-02-27T06:20:57.922Z,1010.4
2023-02-27T06:22:14.169Z,1010.4
2023-02-27T06:23:30.412Z,1010.3
2023-02-27T06:24:46.656Z,1010.4
2023-02-27T06:26:02.897Z,1010.5
2023-02-27T06:27:19.148Z,1010.4
2023-02-27T06:28:35.380Z,1010.4
2023-02-27T06:29:51.625Z,1010.4
2023-02-27T06:31:07.868Z,1010.4
2023-02-27T06:32:23.120Z,1010.4
2023-02-27T06:33:39.363Z,1010.4
2023-02-27T06:34:55.591Z,1010.5
2023-02-27T06:36:11.849Z,1010.5
2023-02-27T06:37:28.073Z,1010.6
2023-02-27T06:38:44.330Z,1010.6
2023-02-27T06:40:00.567Z,1010.5
2023-02-27T06:41:16.799Z,1010.5
2023-02-27T06:42:33.046Z,1010.6
2023-02-27T06:43:49.280Z,1010.6
2023-02-27T06:45:05.540Z,1010.7
2023-02-27T06:46:21.770Z,1010.6
2023-02-27T06:47:38.006Z,1010.6
2023-02-27T06:48:53.266Z,1010.6
2023-02-27T06:50:09.508Z,1010.6
2023-02-27T06:51:25.750Z,1010.6
2023-02-27T06:52:41.989Z,1010.7
2023-02-27T06:53:58.232Z,1010.7
2023-02-27T06:55:14.468Z,1010.7
2023-02-27T06:56:30.714Z,1010.6
2023-02-27T06:57:46.959Z,1010.6
2023-02-27T06:59:03.206Z,1010.6
2023-02-27T07:00:19.436Z,1010.7
2023-02-27T07:01:35.675Z,1010.7
2023-02-27T07:02:51.929Z,1010.6
2023-02-27T07:04:08.172Z,1010.6
2023-02-27T07:05:23.420Z,1010.5
2023-02-27T07:06:39.662Z,1010.5
2023-02-27T07:07:55.913Z,1010.5
2023-02-27T07:09:12.147Z,1010.6
2023-02-27T07:10:28.390Z,1010.6
2023-02-27T07:11:44.625Z,1010.6
2023-02-27T07:13:00.872Z,1010.6
2023-02-27T07:14:17.103Z,1010.6
2023-02-27T07:15:33.352Z,1010.6
2023-02-27T07:16:49.588Z,1010.6
2023-02-27T07:18:05.836Z,1010.6
2023-02-27T07:19:22.071Z,1010.6
2023-02-27T07:20:38.312Z,1010.7
2023-02-27T07:21:53.574Z,1010.7
2023-02-27T07:23:09.810Z,1010.6
2023-02-27T07:24:26.061Z,1010.6
2023-02-27T07:25:42.293Z,1010.6
2023-02-27T07:26:58.534Z,1010.7
2023-02-27T07:28:14.769Z,1010.6
2023-02-27T07:29:31.010Z,1010.6
2023-02-27T07:30:47.256Z,1010.6
2023-02-27T07:32:03.497Z,1010.6
2023-02-27T07:33:19.752Z,1010.6
2023-02-27T07:34:35.982Z,1010.6
2023-02-27T07:35:52.221Z,1010.6
2023-02-27T07:37:08.471Z,1010.6
2023-02-27T07:38:23.722Z,1010.6
2023-02-27T07:39:39.955Z,1010.7
2023-02-27T07:40:56.211Z,1010.6
2023-02-27T07:43:28.685Z,1010.6
2023-02-27T07:44:44.920Z,1010.6
2023-02-27T07:46:01.177Z,1010.7
2023-02-27T07:48:33.648Z,1010.7
2023-02-27T07:49:49.887Z,1010.7
2023-02-27T07:51:06.130Z,1010.7
2023-02-27T07:52:22.381Z,1010.7
2023-02-27T07:53:38.614Z,1010.7
2023-02-27T07:54:53.880Z,1010.7
2023-02-27T07:56:10.109Z,1010.7
2023-02-27T07:57:26.366Z,1010.8
2023-02-27T07:58:42.597Z,1010.8
2023-02-27T07:59:58.832Z,1010.8
2023-02-27T08:01:15.069Z,1010.8
2023-02-27T08:02:31.323Z,1010.7
2023-02-27T08:03:47.570Z,1010.6
2023-02-27T08:05:03.806Z,1010.7
2023-02-27T08:06:20.039Z,1010.8
2023-02-27T08:07:36.282Z,1010.8
2023-02-27T08:08:52.517Z,1010.8
2023-02-27T08:10:08.774Z,1010.8
2023-02-27T08:11:24.032Z,1010.8
2023-02-27T08:12:40.269Z,1010.8
2023-02-27T08:13:56.514Z,1010.9
2023-02-27T08:15:12.754Z,1010.9
2023-02-27T08:16:28.991Z,1010.9
2023-02-27T08:17:45.222Z,1010.9
2023-02-27T08:19:01.450Z,1010.9
2023-02-27T08:20:17.683Z,1010.9
2023-02-27T08:21:33.935Z,1010.9
2023-02-27T08:22:50.182Z,1010.9
2023-02-27T08:24:06.415Z,1011
2023-02-27T08:25:22.652Z,1011
2023-02-27T08:26:38.906Z,1011
2023-02-27T08:27:54.163Z,1011
2023-02-27T08:29:10.384Z,1010.9
2023-02-27T08:30:26.644Z,1010.9
2023-02-27T08:31:42.885Z,1010.9
2023-02-27T08:32:59.112Z,1010.9
2023-02-27T08:34:14.372Z,1011
2023-02-27T08:35:30.618Z,1011
2023-02-27T08:36:46.862Z,1011
2023-02-27T08:38:03.104Z,1011.1
2023-02-27T08:39:19.353Z,1011.1
2023-02-27T08:40:35.585Z,1011.1
2023-02-27T08:41:51.822Z,1011
2023-02-27T08:43:08.059Z,1011
2023-02-27T08:44:24.306Z,1011.1
2023-02-27T08:45:40.558Z,1011.1
2023-02-27T08:46:56.797Z,1011.1
2023-02-27T08:48:13.028Z,1011.1
2023-02-27T08:49:29.274Z,1011.1
2023-02-27T08:52:00.779Z,1011.1
2023-02-27T08:54:33.248Z,1011.1
2023-02-27T08:55:49.490Z,1011.1
2023-02-27T08:57:05.731Z,1011.1
2023-02-27T08:58:21.981Z,1011.1
2023-02-27T08:59:38.223Z,1011.1
2023-02-27T09:00:54.449Z,1011.1
2023-02-27T09:03:26.945Z,1011.1
2023-02-27T09:04:42.205Z,1011.1
2023-02-27T09:07:13.693Z,1011.1
2023-02-27T09:08:29.933Z,1011.1
2023-02-27T09:09:46.182Z,1011.2
2023-02-27T09:11:02.427Z,1011.1
2023-02-27T09:12:18.666Z,1011.1
2023-02-27T09:14:51.138Z,1011.1
2023-02-27T09:16:07.379Z,1011.1
2023-02-27T09:17:23.630Z,1011.1
2023-02-27T09:18:39.865Z,1011.2
2023-02-27T09:19:56.103Z,1011.1
2023-02-27T09:21:12.355Z,1011.2
2023-02-27T09:22:27.604Z,1011.1
2023-02-27T09:23:43.854Z,1011.1
2023-02-27T09:25:00.078Z,1011.1
2023-02-27T09:26:16.321Z,1011.1
2023-02-27T09:27:32.559Z,1011.1
2023-02-27T09:28:48.812Z,1011.1
2023-02-27T09:30:05.052Z,1011.1
2023-02-27T09:31:21.288Z,1011.1
2023-02-27T09:32:37.538Z,1011.1
2023-02-27T09:33:52.783Z,1011.1
2023-02-27T09:35:08.038Z,1011.1
2023-02-27T09:37:40.540Z,1011.2
2023-02-27T09:38:56.766Z,1011.2
2023-02-27T09:40:13.019Z,1011.2
2023-02-27T09:41:29.246Z,1011.2
2023-02-27T09:42:45.496Z,1011.2
2023-02-27T09:45:17.967Z,1011.2
2023-02-27T09:46:34.226Z,1011.2
2023-02-27T09:47:50.467Z,1011.2
2023-02-27T09:49:06.690Z,1011.2
2023-02-27T09:50:21.968Z,1011.2
2023-02-27T09:52:53.467Z,1011.2
2023-02-27T09:54:09.698Z,1011.2
2023-02-27T09:55:25.933Z,1011.2
2023-02-27T09:56:42.182Z,1011.3
2023-02-27T09:57:58.419Z,1011.3
2023-02-27T09:59:14.653Z,1011.2
2023-02-27T10:00:30.902Z,1011.3
2023-02-27T10:01:47.132Z,1011.2
2023-02-27T10:03:03.379Z,1011.3
2023-02-27T10:04:19.620Z,1011.3
2023-02-27T10:05:35.998Z,1011.3
2023-02-27T10:06:51.261Z,1011.3
2023-02-27T10:08:07.495Z,1011.3
2023-02-27T10:09:23.737Z,1011.3
2023-02-27T10:10:39.991Z,1011.3
2023-02-27T10:11:56.216Z,1011.3
2023-02-27T10:13:12.475Z,1011.3
2023-02-27T10:14:28.707Z,1011.3
2023-02-27T10:15:44.954Z,1011.4
2023-02-27T10:17:01.192Z,1011.3
2023-02-27T10:18:17.439Z,1011.4
2023-02-27T10:19:33.671Z,1011.4
2023-02-27T10:20:49.916Z,1011.4
2023-02-27T10:22:06.159Z,1011.3
2023-02-27T10:23:21.407Z,1011.4
2023-02-27T10:24:37.652Z,1011.4
2023-02-27T10:25:53.897Z,1011.4
2023-02-27T10:27:10.135Z,1011.4
2023-02-27T10:28:26.371Z,1011.4
2023-02-27T10:30:58.845Z,1011.4
2023-02-27T10:32:15.103Z,1011.4
2023-02-27T10:33:31.325Z,1011.3
2023-02-27T10:34:47.573Z,1011.4
2023-02-27T10:36:03.823Z,1011.3
2023-02-27T10:37:20.049Z,1011.4
2023-02-27T10:38:36.291Z,1011.4
2023-02-27T10:39:51.544Z,1011.4
2023-02-27T10:41:07.791Z,1011.4
2023-02-27T10:42:24.043Z,1011.4
2023-02-27T10:43:40.272Z,1011.4
2023-02-27T10:44:56.516Z,1011.3
2023-02-27T10:46:12.748Z,1011.3
2023-02-27T10:47:28.990Z,1011.3
2023-02-27T10:48:45.246Z,1011.3
2023-02-27T10:50:01.483Z,1011.4
2023-02-27T10:51:17.716Z,1011.3
2023-02-27T10:53:50.195Z,1011.4
2023-02-27T10:55:06.451Z,1011.4
2023-02-27T10:56:21.691Z,1011.3
2023-02-27T10:57:37.946Z,1011.4
2023-02-27T10:58:54.190Z,1011.3
2023-02-27T11:00:10.422Z,1011.3
2023-02-27T11:01:26.666Z,1011.3
2023-02-27T11:02:42.890Z,1011.4
2023-02-27T11:03:59.137Z,1011.4
2023-02-27T11:05:15.389Z,1011.4
2023-02-27T11:06:31.627Z,1011.3
2023-02-27T11:07:47.853Z,1011.3
2023-02-27T11:09:04.102Z,1011.3
2023-02-27T11:10:20.355Z,1011.3
2023-02-27T11:11:36.586Z,1011.3
2023-02-27T11:12:51.832Z,1011.3
2023-02-27T11:14:08.080Z,1011.3
2023-02-27T11:15:24.329Z,1011.3
2023-02-27T11:16:40.564Z,1011.2
2023-02-27T11:17:56.813Z,1011.2
2023-02-27T11:19:13.038Z,1011.2
2023-02-27T11:20:29.290Z,1011.1
2023-02-27T11:21:45.526Z,1011.1
2023-02-27T11:23:01.764Z,1011.2
2023-02-27T11:24:18.003Z,1011.1
2023-02-27T11:25:34.240Z,1011.1
2023-02-27T11:26:50.496Z,1011.1
2023-02-27T11:28:06.729Z,1011.1
2023-02-27T11:29:21.979Z,1011
2023-02-27T11:30:38.221Z,1011.1
2023-02-27T11:31:54.476Z,1011.1
2023-02-27T11:34:26.953Z,1011.1
2023-02-27T11:35:43.194Z,1011.1
2023-02-27T11:36:59.423Z,1011
2023-02-27T11:39:31.917Z,1011
2023-02-27T11:40:48.145Z,1010.9
2023-02-27T11:42:04.390Z,1011
2023-02-27T11:43:20.630Z,1010.9
2023-02-27T11:44:36.878Z,1010.9
2023-02-27T11:47:08.382Z,1010.9
2023-02-27T11:48:23.642Z,1011
2023-02-27T11:49:38.893Z,1010.9
2023-02-27T11:50:55.138Z,1010.9
2023-02-27T11:52:11.366Z,1010.9
2023-02-27T11:53:27.623Z,1010.9
2023-02-27T11:54:43.845Z,1011
2023-02-27T11:56:00.097Z,1011
2023-02-27T11:57:16.336Z,1010.9
2023-02-27T11:58:32.571Z,1011
2023-02-27T11:59:48.823Z,1011
2023-02-27T12:02:21.293Z,1010.9
2023-02-27T12:03:37.529Z,1010.9
2023-02-27T12:04:53.772Z,1010.9
2023-02-27T12:06:09.030Z,1010.9
2023-02-27T12:07:25.286Z,1010.9
2023-02-27T12:09:57.767Z,1010.9
2023-02-27T12:11:13.010Z,1010.9
2023-02-27T12:12:28.279Z,1010.9
2023-02-27T12:13:44.508Z,1010.9
2023-02-27T12:15:00.748Z,1010.8
2023-02-27T12:17:33.246Z,1010.8
2023-02-27T12:18:49.485Z,1010.8
2023-02-27T12:20:05.719Z,1010.9
2023-02-27T12:21:21.958Z,1010.8
2023-02-27T12:22:38.201Z,1010.8
2023-02-27T12:23:54.450Z,1010.8
2023-02-27T12:25:10.677Z,1010.8
2023-02-27T12:26:26.914Z,1010.7
2023-02-27T12:27:43.167Z,1010.8
2023-02-27T12:28:58.428Z,1010.8
2023-02-27T12:30:14.664Z,1010.8
2023-02-27T12:32:47.136Z,1010.8
2023-02-27T12:34:03.382Z,1010.8
2023-02-27T12:35:19.625Z,1010.8
2023-02-27T12:36:35.869Z,1010.8
2023-02-27T12:37:52.108Z,1010.8
2023-02-27T12:39:08.356Z,1010.8
2023-02-27T12:40:24.581Z,1010.8
2023-02-27T12:41:40.818Z,1010.8
2023-02-27T12:42:57.065Z,1010.8
2023-02-27T12:44:12.334Z,1010.8
2023-02-27T12:45:27.595Z,1010.8
2023-02-27T12:46:43.829Z,1010.8
2023-02-27T12:48:00.075Z,1010.9
2023-02-27T12:49:15.324Z,1010.8
2023-02-27T12:50:31.580Z,1010.8
2023-02-27T12:51:47.822Z,1010.8
2023-02-27T12:53:04.053Z,1010.8
2023-02-27T12:54:20.289Z,1010.8
2023-02-27T12:55:36.527Z,1010.8
2023-02-27T12:56:52.770Z,1010.8
2023-02-27T12:58:08.044Z,1010.8
2023-02-27T12:59:23.299Z,1010.8
2023-02-27T13:00:39.526Z,1010.8
2023-02-27T13:01:55.000Z,1010.8
2023-02-27T13:03:12.018Z,1010.8
2023-02-27T13:04:28.245Z,1010.9
2023-02-27T13:05:44.502Z,1010.8
2023-02-27T13:07:00.727Z,1010.8
2023-02-27T13:08:16.975Z,1010.8
2023-02-27T13:09:33.212Z,1010.8
2023-02-27T13:10:49.466Z,1010.8
2023-02-27T13:12:05.696Z,1010.8
2023-02-27T13:13:21.940Z,1010.8
2023-02-27T13:15:54.418Z,1010.8
2023-02-27T13:17:09.671Z,1010.8
2023-02-27T13:18:25.924Z,1010.7
2023-02-27T13:19:42.167Z,1010.8
2023-02-27T13:20:58.402Z,1010.7
2023-02-27T13:22:14.637Z,1010.7
2023-02-27T13:23:30.878Z,1010.7
2023-02-27T13:24:47.114Z,1010.7
2023-02-27T13:26:03.364Z,1010.7
2023-02-27T13:27:19.604Z,1010.7
2023-02-27T13:28:35.845Z,1010.7
2023-02-27T13:29:52.090Z,1010.7
2023-02-27T13:31:08.321Z,1010.7
2023-02-27T13:32:24.558Z,1010.7
2023-02-27T13:33:39.832Z,1010.7
2023-02-27T13:34:56.060Z,1010.7
2023-02-27T13:36:12.301Z,1010.7
2023-02-27T13:37:28.537Z,1010.6
2023-02-27T13:38:44.785Z,1010.7
2023-02-27T13:40:01.023Z,1010.7
2023-02-27T13:41:17.262Z,1010.7
2023-02-27T13:42:33.514Z,1010.7
2023-02-27T13:43:49.745Z,1010.7
2023-02-27T13:45:05.985Z,1010.7
2023-02-27T13:46:22.237Z,1010.6
2023-02-27T13:48:54.718Z,1010.7
2023-02-27T13:50:11.078Z,1010.6
2023-02-27T13:51:27.321Z,1010.7
2023-02-27T13:52:43.562Z,1010.7
2023-02-27T13:53:59.805Z,1010.7
2023-02-27T13:56:32.267Z,1010.7
2023-02-27T13:57:48.514Z,1010.7
2023-02-27T13:59:04.766Z,1010.7
2023-02-27T14:00:21.006Z,1010.7
2023-02-27T14:01:37.247Z,1010.6
2023-02-27T14:02:53.482Z,1010.6
2023-02-27T14:04:09.728Z,1010.6
2023-02-27T14:05:25.952Z,1010.7
2023-02-27T14:06:41.220Z,1010.6
2023-02-27T14:07:57.463Z,1010.7
2023-02-27T14:09:13.706Z,1010.7
2023-02-27T14:10:29.933Z,1010.7
2023-02-27T14:11:46.176Z,1010.7
2023-02-27T14:13:02.419Z,1010.7
2023-02-27T14:14:18.653Z,1010.7
2023-02-27T14:15:34.900Z,1010.7
2023-02-27T14:16:51.149Z,1010.7
2023-02-27T14:18:07.386Z,1010.7
2023-02-27T14:19:23.631Z,1010.7
2023-02-27T14:20:39.869Z,1010.8
2023-02-27T14:21:56.102Z,1010.8
2023-02-27T14:23:11.372Z,1010.7
2023-02-27T14:24:27.603Z,1010.8
2023-02-27T14:25:43.849Z,1010.8
2023-02-27T14:27:00.092Z,1010.8
2023-02-27T14:28:16.333Z,1010.9
2023-02-27T14:29:32.575Z,1010.9
2023-02-27T14:30:48.809Z,1010.9
2023-02-27T14:32:05.049Z,1010.9
2023-02-27T14:33:21.287Z,1010.9
2023-02-27T14:34:37.528Z,1010.9
2023-02-27T14:37:10.018Z,1010.9
2023-02-27T14:38:26.245Z,1010.9
2023-02-27T14:39:41.517Z,1010.9
2023-02-27T14:40:57.745Z,1010.9
2023-02-27T14:42:13.992Z,1010.9
2023-02-27T14:43:30.225Z,1010.9
2023-02-27T14:44:46.462Z,1010.9
2023-02-27T14:46:02.709Z,1010.9
2023-02-27T14:47:18.955Z,1010.9
2023-02-27T14:48:35.182Z,1010.9
2023-02-27T14:49:51.433Z,1010.9
2023-02-27T14:51:07.669Z,1010.9
2023-02-27T14:52:23.918Z,1010.9
2023-02-27T14:53:40.160Z,1010.9
2023-02-27T14:54:56.384Z,1011
2023-02-27T14:56:11.650Z,1010.9
2023-02-27T14:57:27.897Z,1010.9
2023-02-27T14:58:44.126Z,1010.9
2023-02-27T15:00:00.369Z,1010.9
2023-02-27T15:01:16.620Z,1011
2023-02-27T15:02:32.855Z,1011
2023-02-27T15:03:49.102Z,1011
2023-02-27T15:05:05.337Z,1011
2023-02-27T15:06:21.565Z,1010.9
2023-02-27T15:07:37.816Z,1011
2023-02-27T15:08:54.058Z,1011
2023-02-27T15:10:10.297Z,1010.9
2023-02-27T15:12:42.782Z,1011
2023-02-27T15:13:58.031Z,1011
2023-02-27T15:15:14.277Z,1011
2023-02-27T15:16:30.515Z,1011.1
2023-02-27T15:17:46.763Z,1011.1
2023-02-27T15:20:19.236Z,1011
2023-02-27T15:21:35.470Z,1011
2023-02-27T15:22:51.723Z,1011
2023-02-27T15:24:07.968Z,1011.1
2023-02-27T15:25:24.202Z,1011.1
2023-02-27T15:26:40.444Z,1011.1
2023-02-27T15:27:56.677Z,1011.1
2023-02-27T15:29:12.926Z,1011.2
2023-02-27T15:30:28.169Z,1011.1
2023-02-27T15:31:44.426Z,1011.1
2023-02-27T15:33:00.667Z,1011.2
2023-02-27T15:35:33.134Z,1011.2
2023-02-27T15:36:48.412Z,1011.2
2023-02-27T15:38:03.655Z,1011.2
2023-02-27T15:39:19.909Z,1011.3
2023-02-27T15:40:36.149Z,1011.3
2023-02-27T15:43:08.615Z,1011.3
2023-02-27T15:44:24.863Z,1011.3
2023-02-27T15:45:41.095Z,1011.3
2023-02-27T15:46:57.334Z,1011.3
2023-02-27T15:48:13.575Z,1011.4
2023-02-27T15:49:29.831Z,1011.3
2023-02-27T15:50:46.072Z,1011.4
2023-02-27T15:52:02.307Z,1011.3
2023-02-27T15:53:18.550Z,1011.4
2023-02-27T15:54:33.794Z,1011.4
2023-02-27T15:55:50.039Z,1011.4
2023-02-27T15:57:06.286Z,1011.5
2023-02-27T15:58:22.523Z,1011.4
2023-02-27T15:59:38.777Z,1011.3
2023-02-27T16:00:55.007Z,1011.4
2023-02-27T16:02:11.251Z,1011.4
2023-02-27T16:03:27.486Z,1011.4
2023-02-27T16:04:42.748Z,1011.4
2023-02-27T16:05:57.998Z,1011.5
2023-02-27T16:07:14.256Z,1011.5
2023-02-27T16:08:30.491Z,1011.5
2023-02-27T16:09:46.734Z,1011.5
2023-02-27T16:11:02.971Z,1011.6
2023-02-27T16:13:35.448Z,1011.5
2023-02-27T16:14:51.698Z,1011.6
2023-02-27T16:16:07.940Z,1011.5
2023-02-27T16:17:24.167Z,1011.6
2023-02-27T16:18:40.406Z,1011.6
2023-02-27T16:21:12.904Z,1011.6
2023-02-27T16:22:28.155Z,1011.6
2023-02-27T16:23:43.417Z,1011.7
2023-02-27T16:24:59.659Z,1011.7
2023-02-27T16:26:15.898Z,1011.7
2023-02-27T16:27:32.127Z,1011.7
2023-02-27T16:28:48.371Z,1011.7
2023-02-27T16:30:04.623Z,1011.7
2023-02-27T16:31:20.863Z,1011.7
2023-02-27T16:33:53.339Z,1011.7
2023-02-27T16:36:25.821Z,1011.7
2023-02-27T16:38:58.301Z,1011.8
2023-02-27T16:40:13.567Z,1011.8
2023-02-27T16:41:28.814Z,1011.8
2023-02-27T16:42:45.061Z,1011.8
2023-02-27T16:44:01.296Z,1011.9
2023-02-27T16:45:17.551Z,1011.9
2023-02-27T16:46:33.785Z,1011.9
2023-02-27T16:47:50.031Z,1011.9
2023-02-27T16:49:06.271Z,1011.9
2023-02-27T16:50:22.507Z,1011.9
2023-02-27T16:51:38.747Z,1012.1
2023-02-27T16:52:54.986Z,1011.9
2023-02-27T16:54:10.248Z,1011.9
2023-02-27T16:55:25.506Z,1012
2023-02-27T16:56:41.755Z,1012.1
2023-02-27T16:57:57.983Z,1012
2023-02-27T16:59:14.236Z,1012